Airfield :
LOGIN :

Register | Disclaimer

   EN    FR    IT 

 










Legend :    VFR   Marginal VFR   IFR   Intensive IFR   Very Intensive IFR
Visi :
Ceiling :
>= 8 km
>= 3000ft
5 to 8 km
1000 to 3000 ft
1500m to 5 km
500 to 1000 ft
800 to 1500m
200 to 500 ft
< 800m
< 200 ft
Symbols :   Thunderstorms  Fog  Heavy snow  Heavy precipitations  Wind > 20 kt
SIGMETs :     Misc.  Thunderstorms  Icing  Turbulence  Mountain Waves  Volcanic Ashes







- Airport Elevation : 359 ft
- IATA code : BVA
- Download approach charts


LFOB - Beauvais

CURRENT METAR :
  • 180630Z AUTO 34010KT 9999 BKN014 06/04 Q1022 BECMG SCT017

EXPIRED METARs :
  • 180600Z AUTO 34012KT 9999 OVC013 07/05 Q1022 BECMG SCT017
  • 180530Z AUTO 33010KT 9999 BKN016 BKN023 07/05 Q1021 NOSIG
  • 180500Z AUTO 33012KT 9999 BKN019 BKN026 07/05 Q1021 NOSIG
  • 180430Z AUTO 34014KT 9999 FEW022 SCT028 BKN033 08/06 Q1021 NOSIG
  • 180400Z AUTO 32011KT 9999 SCT019 BKN036 OVC043 08/07 Q1020 NOSIG

TAF TAF LFOB
Valid from the 18 at 06:00 until the 19 at 06:00 UTC


180500Z 1806/1906 35010KT 9999 SCT017
BECMG 1821/1824 VRB02KT 0200 FG VV///
ATIS : +33 3 44 11 49 28
No reported NOTAMs for that airfield.



MET'MAP, your aeronautical weather chart ! - Copyright ORBIFLY December 2007 - Disclaimer

ORBIFLY MET'MAP TEAM :

Programming & Development : Alexandra Zaïnal
Concept & Development : Baudouin d'Aumeries
Co-Development & Prog : Marc-Olivier Méhu
Technical & hardware support : Manuel Goepfert

Contact : metmap@orbifly.com




SOURCES & CREDITS :

   NOAA